createdAt,value
2019-04-29T00:02:21.698Z,12.70
2019-04-29T00:07:18.019Z,11.30
2019-04-29T00:12:16.415Z,10.50
2019-04-29T00:17:14.423Z,12.60
2019-04-29T00:22:10.974Z,11.37
2019-04-29T00:27:07.054Z,10.13
2019-04-29T00:32:04.188Z,14.43
2019-04-29T00:37:08.218Z,12.50
2019-04-29T00:42:15.002Z,10.83
2019-04-29T00:47:11.602Z,9.93
2019-04-29T00:52:07.824Z,15.50
2019-04-29T00:57:04.445Z,10.87
2019-04-29T01:02:00.726Z,11.00
2019-04-29T01:06:57.087Z,13.30
2019-04-29T01:11:53.424Z,16.77
2019-04-29T01:16:49.595Z,9.10
2019-04-29T01:21:46.013Z,9.33
2019-04-29T01:26:46.690Z,9.17
2019-04-29T01:31:42.877Z,10.77
2019-04-29T01:36:41.245Z,10.40
2019-04-29T01:41:54.423Z,11.57
2019-04-29T01:46:51.045Z,11.10
2019-04-29T01:51:47.044Z,10.77
2019-04-29T01:56:43.147Z,17.53
2019-04-29T02:01:39.264Z,12.87
2019-04-29T02:06:35.546Z,11.17
2019-04-29T02:11:31.585Z,16.47
2019-04-29T02:16:28.026Z,25.57
2019-04-29T02:21:24.408Z,16.43
2019-04-29T02:26:20.664Z,15.30
2019-04-29T02:31:35.233Z,16.77
2019-04-29T02:36:31.377Z,11.83
2019-04-29T02:41:29.343Z,17.93
2019-04-29T02:46:25.533Z,13.70
2019-04-29T02:51:40.800Z,11.30
2019-04-29T02:56:37.404Z,10.77
2019-04-29T03:01:44.519Z,13.90
2019-04-29T03:06:40.963Z,13.27
2019-04-29T03:11:37.293Z,13.00
2019-04-29T03:16:33.576Z,16.03
2019-04-29T03:21:37.333Z,16.10
2019-04-29T03:26:33.826Z,12.70
2019-04-29T03:31:29.956Z,11.53
2019-04-29T03:36:26.109Z,11.00
2019-04-29T03:41:22.477Z,13.80
2019-04-29T03:46:18.510Z,10.23
2019-04-29T03:51:15.141Z,11.00
2019-04-29T03:56:11.346Z,16.33
2019-04-29T04:01:21.069Z,13.53
2019-04-29T04:06:19.144Z,13.07
2019-04-29T04:11:15.299Z,14.33
2019-04-29T04:16:13.578Z,14.60
2019-04-29T04:21:10.250Z,16.40
2019-04-29T04:26:06.473Z,9.23
2019-04-29T04:31:06.473Z,13.80
2019-04-29T04:36:00.805Z,19.30
2019-04-29T04:41:00.037Z,21.13
2019-04-29T04:45:56.255Z,17.00
2019-04-29T04:50:53.758Z,20.40
2019-04-29T04:55:51.751Z,15.13
2019-04-29T05:00:47.986Z,20.63
2019-04-29T05:05:44.217Z,24.73
2019-04-29T05:10:40.417Z,22.73
2019-04-29T05:15:36.829Z,15.47
2019-04-29T05:20:37.599Z,17.70
2019-04-29T05:25:33.993Z,15.17
2019-04-29T05:30:30.205Z,19.10
2019-04-29T05:35:31.571Z,27.27
2019-04-29T05:40:41.652Z,21.83
2019-04-29T05:45:46.161Z,21.97
2019-04-29T05:50:47.583Z,23.67
2019-04-29T05:55:41.872Z,19.17
2019-04-29T06:00:39.326Z,21.40
2019-04-29T06:05:35.369Z,23.40
2019-04-29T06:10:31.494Z,24.43
2019-04-29T06:15:27.693Z,18.13
2019-04-29T06:20:50.219Z,24.63
2019-04-29T06:25:46.374Z,26.40
2019-04-29T06:30:45.249Z,22.83
2019-04-29T06:35:43.309Z,19.23
2019-04-29T06:40:38.216Z,22.73
2019-04-29T06:45:34.353Z,25.80
2019-04-29T06:50:38.076Z,19.37
2019-04-29T06:55:34.253Z,31.40
2019-04-29T07:00:30.210Z,26.47
2019-04-29T07:05:26.369Z,34.10
2019-04-29T07:10:26.874Z,27.97
2019-04-29T07:15:20.740Z,33.43
2019-04-29T07:20:18.443Z,28.50
2019-04-29T07:25:14.830Z,22.67
2019-04-29T07:30:10.902Z,27.73
2019-04-29T07:35:09.921Z,23.17
2019-04-29T07:40:08.053Z,40.50
2019-04-29T07:45:19.477Z,30.47
2019-04-29T07:50:17.401Z,28.43
2019-04-29T07:55:13.578Z,26.37
2019-04-29T08:00:13.046Z,43.87
2019-04-29T08:05:10.221Z,30.27
2019-04-29T08:10:22.803Z,26.83
2019-04-29T08:15:07.738Z,29.07
2019-04-29T08:20:05.158Z,25.43
2019-04-29T08:25:04.222Z,31.60
2019-04-29T08:30:00.335Z,29.60
2019-04-29T08:34:58.315Z,27.40
2019-04-29T08:40:14.714Z,20.80
2019-04-29T08:50:08.379Z,14.40
2019-04-29T08:55:04.817Z,12.37
2019-04-29T09:00:00.751Z,14.33
2019-04-29T09:04:56.679Z,14.07
2019-04-29T09:09:56.004Z,7.80
2019-04-29T09:14:50.420Z,10.30
2019-04-29T09:19:46.338Z,16.83
2019-04-29T09:24:48.247Z,11.50
2019-04-29T09:29:41.981Z,17.23
2019-04-29T09:34:37.904Z,12.13
2019-04-29T09:39:42.819Z,11.90
2019-04-29T09:44:44.995Z,10.87
2019-04-29T09:49:41.042Z,6.77
2019-04-29T09:54:36.954Z,19.33
2019-04-29T09:59:40.820Z,9.90
2019-04-29T10:04:38.753Z,6.63
2019-04-29T10:09:34.685Z,8.50
2019-04-29T10:14:30.704Z,6.53
2019-04-29T10:19:31.382Z,8.67
2019-04-29T10:24:27.423Z,6.57
2019-04-29T10:29:28.043Z,8.50
2019-04-29T10:34:26.891Z,7.60
2019-04-29T10:39:24.287Z,6.97
2019-04-29T10:44:22.146Z,9.23
2019-04-29T10:49:22.732Z,7.97
2019-04-29T10:54:18.649Z,4.57
2019-04-29T10:59:14.674Z,5.17
2019-04-29T11:04:10.910Z,4.30
2019-04-29T11:09:14.323Z,3.73
2019-04-29T11:14:10.720Z,6.53
2019-04-29T11:19:06.641Z,4.43
2019-04-29T11:24:04.647Z,3.17
2019-04-29T11:29:00.825Z,4.53
2019-04-29T11:34:11.653Z,5.93
2019-04-29T11:39:09.115Z,2.90
2019-04-29T11:44:06.545Z,4.63
2019-04-29T11:49:04.461Z,4.60
2019-04-29T11:54:01.339Z,5.33
2019-04-29T11:58:59.286Z,7.80
2019-04-29T12:03:58.333Z,4.17
2019-04-29T12:08:55.224Z,9.13
2019-04-29T12:14:08.284Z,10.43
2019-04-29T12:24:23.477Z,8.50
2019-04-29T12:29:19.665Z,11.50
2019-04-29T12:34:30.451Z,8.23
2019-04-29T12:39:42.808Z,8.27
2019-04-29T12:44:34.956Z,10.77
2019-04-29T12:49:27.098Z,9.70
2019-04-29T12:54:24.017Z,14.07
2019-04-29T12:59:30.657Z,9.83
2019-04-29T13:04:45.012Z,12.43
2019-04-29T13:09:43.956Z,12.67
2019-04-29T13:14:42.621Z,14.10
2019-04-29T13:20:07.404Z,19.10
2019-04-29T13:25:05.504Z,17.77
2019-04-29T13:30:15.189Z,17.87
2019-04-29T13:35:12.334Z,20.20
2019-04-29T13:40:09.386Z,21.33
2019-04-29T13:45:12.517Z,27.87
2019-04-29T13:50:18.929Z,28.80
2019-04-29T13:55:17.705Z,23.63
2019-04-29T14:00:14.306Z,27.37
2019-04-29T14:05:15.146Z,24.43
2019-04-29T14:10:14.974Z,27.80
2019-04-29T14:15:11.270Z,26.50
2019-04-29T14:20:10.895Z,14.93
2019-04-29T14:25:08.192Z,28.70
2019-04-29T14:30:09.127Z,28.40
2019-04-29T14:35:19.693Z,32.83
2019-04-29T14:40:15.745Z,33.83
2019-04-29T14:45:30.501Z,32.27
2019-04-29T14:50:28.015Z,26.77
2019-04-29T14:55:25.210Z,41.37
2019-04-29T15:00:30.033Z,37.40
2019-04-29T15:05:28.228Z,39.67
2019-04-29T15:10:26.697Z,35.93
2019-04-29T15:15:40.557Z,45.50
2019-04-29T15:20:45.132Z,29.40
2019-04-29T15:25:41.177Z,46.60
2019-04-29T15:30:38.633Z,41.67
2019-04-29T15:35:34.898Z,36.70
2019-04-29T15:40:30.853Z,36.87
2019-04-29T15:45:28.102Z,31.33
2019-04-29T15:50:32.665Z,23.80
2019-04-29T15:55:28.510Z,28.47
2019-04-29T16:00:25.507Z,31.50
2019-04-29T16:05:56.109Z,24.10
2019-04-29T16:10:41.679Z,25.17
2019-04-29T16:15:37.584Z,32.70
2019-04-29T16:20:39.912Z,20.20
2019-04-29T16:25:40.500Z,25.60
2019-04-29T16:30:34.022Z,26.00
2019-04-29T16:35:34.635Z,26.53
2019-04-29T16:40:33.781Z,25.40
2019-04-29T16:45:30.518Z,26.97
2019-04-29T16:50:38.134Z,31.20
2019-04-29T16:55:35.872Z,29.50
2019-04-29T17:00:35.104Z,28.97
2019-04-29T17:05:31.145Z,23.10
2019-04-29T17:10:45.944Z,28.40
2019-04-29T17:15:44.487Z,19.47
2019-04-29T17:20:42.384Z,26.20
2019-04-29T17:25:40.313Z,21.50
2019-04-29T17:30:58.474Z,16.00
2019-04-29T17:35:58.411Z,14.43
2019-04-29T17:40:54.448Z,20.90
2019-04-29T17:46:01.409Z,16.27
2019-04-29T17:51:05.356Z,20.20
2019-04-29T17:56:21.035Z,23.70
2019-04-29T18:01:19.246Z,18.53
2019-04-29T18:06:24.313Z,17.40
2019-04-29T18:11:21.234Z,20.90
2019-04-29T18:16:25.752Z,18.80
2019-04-29T18:21:28.347Z,20.10
2019-04-29T18:26:26.186Z,16.07
2019-04-29T18:31:22.252Z,16.50
2019-04-29T18:36:24.130Z,22.17
2019-04-29T18:41:24.634Z,16.47
2019-04-29T18:46:19.616Z,15.90
2019-04-29T18:51:25.660Z,19.17
2019-04-29T18:56:21.308Z,13.27
2019-04-29T19:01:24.053Z,17.87
2019-04-29T19:06:21.371Z,17.27
2019-04-29T19:11:29.913Z,11.50
2019-04-29T19:16:21.608Z,16.87
2019-04-29T19:21:19.293Z,22.60
2019-04-29T19:26:18.126Z,21.80
2019-04-29T19:31:17.536Z,15.93
2019-04-29T19:36:20.178Z,22.50
2019-04-29T19:41:16.381Z,16.03
2019-04-29T19:46:21.857Z,22.10
2019-04-29T19:51:17.850Z,19.77
2019-04-29T19:56:20.894Z,19.60
2019-04-29T20:01:18.723Z,21.33
2019-04-29T20:06:21.433Z,24.10
2019-04-29T20:11:15.934Z,26.83
2019-04-29T20:16:42.762Z,34.67
2019-04-29T20:21:37.988Z,30.33
2019-04-29T20:26:35.896Z,28.50
2019-04-29T20:31:37.360Z,34.23
2019-04-29T20:36:39.456Z,35.17
2019-04-29T20:41:40.584Z,35.53
2019-04-29T20:46:40.154Z,37.07
2019-04-29T20:51:32.219Z,37.87
2019-04-29T20:56:28.844Z,36.43
2019-04-29T21:01:25.460Z,41.47
2019-04-29T21:06:21.795Z,32.60
2019-04-29T21:11:36.737Z,41.03
2019-04-29T21:16:34.635Z,44.30
2019-04-29T21:21:30.559Z,50.57
2019-04-29T21:26:26.583Z,50.30
2019-04-29T21:31:22.531Z,47.87
2019-04-29T21:36:26.565Z,49.30
2019-04-29T21:41:29.167Z,51.10
2019-04-29T21:46:29.392Z,56.20
2019-04-29T21:51:25.520Z,70.00
2019-04-29T21:56:21.471Z,59.93
2019-04-29T22:01:18.698Z,70.63
2019-04-29T22:06:14.826Z,53.70
2019-04-29T22:11:10.857Z,60.93
2019-04-29T22:16:07.082Z,58.40
2019-04-29T22:21:06.593Z,65.70
2019-04-29T22:26:01.824Z,68.27
2019-04-29T22:30:57.863Z,65.07
2019-04-29T22:35:55.475Z,51.03
2019-04-29T22:40:52.754Z,73.63
2019-04-29T22:45:48.682Z,64.57
2019-04-29T22:50:47.397Z,63.83
2019-04-29T22:55:45.238Z,70.63
2019-04-29T23:00:41.265Z,61.57
2019-04-29T23:05:37.896Z,63.63
2019-04-29T23:10:35.643Z,85.30
2019-04-29T23:15:31.771Z,78.20
2019-04-29T23:20:37.208Z,63.17
2019-04-29T23:25:35.480Z,73.70
2019-04-29T23:30:31.482Z,76.07
2019-04-29T23:35:27.459Z,82.13
2019-04-29T23:40:23.384Z,76.47
2019-04-29T23:45:21.138Z,84.90
2019-04-29T23:50:20.078Z,77.33
2019-04-29T23:55:20.500Z,72.43
